sensor_id;sensor_type;location;lat;lon;timestamp;temperature;humidity
20416;DHT22;10367;52.202;5.996;2023-09-30T00:02:00;11.20;99.90
20416;DHT22;10367;52.202;5.996;2023-09-30T00:04:30;11.20;99.90
20416;DHT22;10367;52.202;5.996;2023-09-30T00:06:59;11.20;99.90
20416;DHT22;10367;52.202;5.996;2023-09-30T00:09:28;11.20;99.90
20416;DHT22;10367;52.202;5.996;2023-09-30T00:11:59;11.10;99.90
20416;DHT22;10367;52.202;5.996;2023-09-30T00:14:31;11.10;99.90
20416;DHT22;10367;52.202;5.996;2023-09-30T00:17:05;11.20;99.90
20416;DHT22;10367;52.202;5.996;2023-09-30T00:19:35;11.20;99.90
20416;DHT22;10367;52.202;5.996;2023-09-30T00:22:07;11.30;99.90
20416;DHT22;10367;52.202;5.996;2023-09-30T00:24:45;11.30;99.90
20416;DHT22;10367;52.202;5.996;2023-09-30T00:27:17;11.30;99.90
20416;DHT22;10367;52.202;5.996;2023-09-30T00:29:47;11.40;99.90
20416;DHT22;10367;52.202;5.996;2023-09-30T00:32:17;11.40;99.90
20416;DHT22;10367;52.202;5.996;2023-09-30T00:34:47;11.40;99.90
20416;DHT22;10367;52.202;5.996;2023-09-30T00:37:16;11.30;99.90
20416;DHT22;10367;52.202;5.996;2023-09-30T00:39:48;11.30;99.90
20416;DHT22;10367;52.202;5.996;2023-09-30T00:42:20;11.40;99.90
20416;DHT22;10367;52.202;5.996;2023-09-30T00:44:51;11.40;99.90
20416;DHT22;10367;52.202;5.996;2023-09-30T00:47:21;11.30;99.90
20416;DHT22;10367;52.202;5.996;2023-09-30T00:49:52;11.30;99.90
20416;DHT22;10367;52.202;5.996;2023-09-30T00:52:32;11.30;99.90
20416;DHT22;10367;52.202;5.996;2023-09-30T00:55:06;11.30;99.90
20416;DHT22;10367;52.202;5.996;2023-09-30T00:57:38;11.20;99.90
20416;DHT22;10367;52.202;5.996;2023-09-30T01:00:08;11.20;99.90
20416;DHT22;10367;52.202;5.996;2023-09-30T01:02:40;11.20;99.90
20416;DHT22;10367;52.202;5.996;2023-09-30T01:05:12;11.10;99.90
20416;DHT22;10367;52.202;5.996;2023-09-30T01:07:42;11.00;99.90
20416;DHT22;10367;52.202;5.996;2023-09-30T01:10:13;10.90;99.90
20416;DHT22;10367;52.202;5.996;2023-09-30T01:15:53;10.90;99.90
20416;DHT22;10367;52.202;5.996;2023-09-30T01:18:23;10.90;99.90
20416;DHT22;10367;52.202;5.996;2023-09-30T01:20:55;10.80;99.90
20416;DHT22;10367;52.202;5.996;2023-09-30T01:23:27;10.80;99.90
20416;DHT22;10367;52.202;5.996;2023-09-30T01:26:02;10.80;99.90
20416;DHT22;10367;52.202;5.996;2023-09-30T01:28:33;10.80;99.90
20416;DHT22;10367;52.202;5.996;2023-09-30T01:31:02;10.70;99.90
20416;DHT22;10367;52.202;5.996;2023-09-30T01:33:45;10.70;99.90
20416;DHT22;10367;52.202;5.996;2023-09-30T01:36:18;10.70;99.90
20416;DHT22;10367;52.202;5.996;2023-09-30T01:38:49;10.60;99.90
20416;DHT22;10367;52.202;5.996;2023-09-30T01:41:23;10.60;99.90
20416;DHT22;10367;52.202;5.996;2023-09-30T01:44:00;10.50;99.90
20416;DHT22;10367;52.202;5.996;2023-09-30T01:46:32;10.60;99.90
20416;DHT22;10367;52.202;5.996;2023-09-30T01:52:32;10.60;99.90
20416;DHT22;10367;52.202;5.996;2023-09-30T01:58:33;10.50;99.90
20416;DHT22;10367;52.202;5.996;2023-09-30T02:07:32;10.60;99.90
20416;DHT22;10367;52.202;5.996;2023-09-30T02:17:15;10.60;99.90
20416;DHT22;10367;52.202;5.996;2023-09-30T02:23:11;10.40;99.90
20416;DHT22;10367;52.202;5.996;2023-09-30T02:25:41;10.50;99.90
20416;DHT22;10367;52.202;5.996;2023-09-30T02:28:34;10.60;99.90
20416;DHT22;10367;52.202;5.996;2023-09-30T02:31:04;10.50;99.90
20416;DHT22;10367;52.202;5.996;2023-09-30T02:37:06;10.40;99.90
20416;DHT22;10367;52.202;5.996;2023-09-30T02:39:41;10.40;99.90
20416;DHT22;10367;52.202;5.996;2023-09-30T02:42:11;10.40;99.90
20416;DHT22;10367;52.202;5.996;2023-09-30T02:44:41;10.40;99.90
20416;DHT22;10367;52.202;5.996;2023-09-30T02:47:10;10.30;99.90
20416;DHT22;10367;52.202;5.996;2023-09-30T02:49:40;10.40;99.90
20416;DHT22;10367;52.202;5.996;2023-09-30T02:52:30;10.40;99.90
20416;DHT22;10367;52.202;5.996;2023-09-30T02:55:03;10.20;99.90
20416;DHT22;10367;52.202;5.996;2023-09-30T02:57:40;10.40;99.90
20416;DHT22;10367;52.202;5.996;2023-09-30T03:00:12;10.30;99.90
20416;DHT22;10367;52.202;5.996;2023-09-30T03:02:56;10.40;99.90
20416;DHT22;10367;52.202;5.996;2023-09-30T03:05:32;10.50;99.90
20416;DHT22;10367;52.202;5.996;2023-09-30T03:08:09;10.40;99.90
20416;DHT22;10367;52.202;5.996;2023-09-30T03:10:38;10.40;99.90
20416;DHT22;10367;52.202;5.996;2023-09-30T03:13:10;10.50;99.90
20416;DHT22;10367;52.202;5.996;2023-09-30T03:15:42;10.40;99.90
20416;DHT22;10367;52.202;5.996;2023-09-30T03:18:16;10.40;99.90
20416;DHT22;10367;52.202;5.996;2023-09-30T03:20:50;10.30;99.90
20416;DHT22;10367;52.202;5.996;2023-09-30T03:23:25;10.30;99.90
20416;DHT22;10367;52.202;5.996;2023-09-30T03:25:59;10.30;99.90
20416;DHT22;10367;52.202;5.996;2023-09-30T03:28:30;10.30;99.90
20416;DHT22;10367;52.202;5.996;2023-09-30T03:31:04;10.30;99.90
20416;DHT22;10367;52.202;5.996;2023-09-30T03:33:34;10.20;99.90
20416;DHT22;10367;52.202;5.996;2023-09-30T03:36:08;10.30;99.90
20416;DHT22;10367;52.202;5.996;2023-09-30T03:38:41;10.30;99.90
20416;DHT22;10367;52.202;5.996;2023-09-30T03:41:12;10.40;99.90
20416;DHT22;10367;52.202;5.996;2023-09-30T03:43:44;10.40;99.90
20416;DHT22;10367;52.202;5.996;2023-09-30T03:46:15;10.40;99.90
20416;DHT22;10367;52.202;5.996;2023-09-30T03:48:44;10.30;99.90
20416;DHT22;10367;52.202;5.996;2023-09-30T03:51:15;10.30;99.90
20416;DHT22;10367;52.202;5.996;2023-09-30T03:53:46;10.30;99.90
20416;DHT22;10367;52.202;5.996;2023-09-30T03:56:15;10.40;99.90
20416;DHT22;10367;52.202;5.996;2023-09-30T03:58:46;10.50;99.90
20416;DHT22;10367;52.202;5.996;2023-09-30T04:01:16;10.50;99.90
20416;DHT22;10367;52.202;5.996;2023-09-30T04:03:47;10.50;99.90
20416;DHT22;10367;52.202;5.996;2023-09-30T04:06:16;10.50;99.90
20416;DHT22;10367;52.202;5.996;2023-09-30T04:08:50;10.40;99.90
20416;DHT22;10367;52.202;5.996;2023-09-30T04:11:19;10.40;99.90
20416;DHT22;10367;52.202;5.996;2023-09-30T04:13:49;10.50;99.90
20416;DHT22;10367;52.202;5.996;2023-09-30T04:16:18;10.50;99.90
20416;DHT22;10367;52.202;5.996;2023-09-30T04:18:49;10.50;99.90
20416;DHT22;10367;52.202;5.996;2023-09-30T04:21:18;10.50;99.90
20416;DHT22;10367;52.202;5.996;2023-09-30T04:23:49;10.50;99.90
20416;DHT22;10367;52.202;5.996;2023-09-30T04:26:18;10.50;99.90
20416;DHT22;10367;52.202;5.996;2023-09-30T04:28:47;10.60;99.90
20416;DHT22;10367;52.202;5.996;2023-09-30T04:31:17;10.60;99.90
20416;DHT22;10367;52.202;5.996;2023-09-30T04:33:48;10.70;99.90
20416;DHT22;10367;52.202;5.996;2023-09-30T04:36:21;10.70;99.90
20416;DHT22;10367;52.202;5.996;2023-09-30T04:38:52;10.80;99.90
20416;DHT22;10367;52.202;5.996;2023-09-30T04:41:23;10.80;99.90
20416;DHT22;10367;52.202;5.996;2023-09-30T04:43:53;10.80;99.90
20416;DHT22;10367;52.202;5.996;2023-09-30T04:46:22;10.80;99.90
20416;DHT22;10367;52.202;5.996;2023-09-30T04:48:57;10.90;99.90
20416;DHT22;10367;52.202;5.996;2023-09-30T04:51:27;11.00;99.90
20416;DHT22;10367;52.202;5.996;2023-09-30T04:54:05;11.20;99.90
20416;DHT22;10367;52.202;5.996;2023-09-30T04:56:40;11.20;99.90
20416;DHT22;10367;52.202;5.996;2023-09-30T04:59:09;11.30;99.90
20416;DHT22;10367;52.202;5.996;2023-09-30T05:01:38;11.30;99.90
20416;DHT22;10367;52.202;5.996;2023-09-30T05:04:12;11.30;99.90
20416;DHT22;10367;52.202;5.996;2023-09-30T05:06:42;11.20;99.90
20416;DHT22;10367;52.202;5.996;2023-09-30T05:09:15;11.20;99.90
20416;DHT22;10367;52.202;5.996;2023-09-30T05:11:47;11.30;99.90
20416;DHT22;10367;52.202;5.996;2023-09-30T05:14:21;11.30;99.90
20416;DHT22;10367;52.202;5.996;2023-09-30T05:16:54;11.30;99.90
20416;DHT22;10367;52.202;5.996;2023-09-30T05:19:25;11.30;99.90
20416;DHT22;10367;52.202;5.996;2023-09-30T05:21:54;11.30;99.90
20416;DHT22;10367;52.202;5.996;2023-09-30T05:24:25;11.30;99.90
20416;DHT22;10367;52.202;5.996;2023-09-30T05:27:05;11.30;99.90
20416;DHT22;10367;52.202;5.996;2023-09-30T05:29:37;11.40;99.90
20416;DHT22;10367;52.202;5.996;2023-09-30T05:32:09;11.30;99.90
20416;DHT22;10367;52.202;5.996;2023-09-30T05:34:38;11.30;99.90
20416;DHT22;10367;52.202;5.996;2023-09-30T05:37:08;11.30;99.90
20416;DHT22;10367;52.202;5.996;2023-09-30T05:39:46;11.20;99.90
20416;DHT22;10367;52.202;5.996;2023-09-30T05:42:20;11.10;99.90
20416;DHT22;10367;52.202;5.996;2023-09-30T05:44:50;11.00;99.90
20416;DHT22;10367;52.202;5.996;2023-09-30T05:47:21;11.00;99.90
20416;DHT22;10367;52.202;5.996;2023-09-30T05:49:53;10.90;99.90
20416;DHT22;10367;52.202;5.996;2023-09-30T05:52:23;10.80;99.90
20416;DHT22;10367;52.202;5.996;2023-09-30T05:54:57;10.90;99.90
20416;DHT22;10367;52.202;5.996;2023-09-30T05:57:33;10.90;99.90
20416;DHT22;10367;52.202;5.996;2023-09-30T06:00:04;11.00;99.90
20416;DHT22;10367;52.202;5.996;2023-09-30T06:02:48;10.90;99.90
20416;DHT22;10367;52.202;5.996;2023-09-30T06:05:22;11.00;99.90
20416;DHT22;10367;52.202;5.996;2023-09-30T06:08:00;11.00;99.90
20416;DHT22;10367;52.202;5.996;2023-09-30T06:10:40;11.10;99.90
20416;DHT22;10367;52.202;5.996;2023-09-30T06:13:11;11.10;99.90
20416;DHT22;10367;52.202;5.996;2023-09-30T06:15:44;11.10;99.90
20416;DHT22;10367;52.202;5.996;2023-09-30T06:18:20;11.10;99.90
20416;DHT22;10367;52.202;5.996;2023-09-30T06:20:54;11.20;99.90
20416;DHT22;10367;52.202;5.996;2023-09-30T06:23:26;11.20;99.90
20416;DHT22;10367;52.202;5.996;2023-09-30T06:25:59;11.20;99.90
20416;DHT22;10367;52.202;5.996;2023-09-30T06:28:30;11.30;99.90
20416;DHT22;10367;52.202;5.996;2023-09-30T06:31:05;11.30;99.90
20416;DHT22;10367;52.202;5.996;2023-09-30T06:33:39;11.30;99.90
20416;DHT22;10367;52.202;5.996;2023-09-30T06:36:09;11.40;99.90
20416;DHT22;10367;52.202;5.996;2023-09-30T06:38:43;11.40;99.90
20416;DHT22;10367;52.202;5.996;2023-09-30T06:41:33;11.50;99.90
20416;DHT22;10367;52.202;5.996;2023-09-30T06:44:04;11.60;99.90
20416;DHT22;10367;52.202;5.996;2023-09-30T06:46:37;11.60;99.90
20416;DHT22;10367;52.202;5.996;2023-09-30T06:49:18;11.60;99.90
20416;DHT22;10367;52.202;5.996;2023-09-30T06:51:50;11.60;99.90
20416;DHT22;10367;52.202;5.996;2023-09-30T06:54:20;11.70;99.90
20416;DHT22;10367;52.202;5.996;2023-09-30T06:56:53;11.80;99.90
20416;DHT22;10367;52.202;5.996;2023-09-30T06:59:23;11.80;99.90
20416;DHT22;10367;52.202;5.996;2023-09-30T07:01:53;11.90;99.90
20416;DHT22;10367;52.202;5.996;2023-09-30T07:04:23;11.90;99.90
20416;DHT22;10367;52.202;5.996;2023-09-30T07:06:54;11.90;99.90
20416;DHT22;10367;52.202;5.996;2023-09-30T07:09:23;12.00;99.90
20416;DHT22;10367;52.202;5.996;2023-09-30T07:11:55;12.10;99.90
20416;DHT22;10367;52.202;5.996;2023-09-30T07:14:38;12.10;99.90
20416;DHT22;10367;52.202;5.996;2023-09-30T07:17:07;12.10;99.90
20416;DHT22;10367;52.202;5.996;2023-09-30T07:19:37;12.20;99.90
20416;DHT22;10367;52.202;5.996;2023-09-30T07:22:06;12.20;99.90
20416;DHT22;10367;52.202;5.996;2023-09-30T07:24:39;12.40;99.90
20416;DHT22;10367;52.202;5.996;2023-09-30T07:27:13;12.40;99.90
20416;DHT22;10367;52.202;5.996;2023-09-30T07:29:59;12.50;99.90
20416;DHT22;10367;52.202;5.996;2023-09-30T07:32:35;12.60;99.90
20416;DHT22;10367;52.202;5.996;2023-09-30T07:35:06;12.70;99.90
20416;DHT22;10367;52.202;5.996;2023-09-30T07:37:35;12.80;99.90
20416;DHT22;10367;52.202;5.996;2023-09-30T07:40:16;12.90;99.90
20416;DHT22;10367;52.202;5.996;2023-09-30T07:42:47;13.00;99.90
20416;DHT22;10367;52.202;5.996;2023-09-30T07:45:23;13.00;99.90
20416;DHT22;10367;52.202;5.996;2023-09-30T07:47:52;13.10;99.90
20416;DHT22;10367;52.202;5.996;2023-09-30T07:50:22;13.40;99.90
20416;DHT22;10367;52.202;5.996;2023-09-30T07:52:56;13.50;99.90
20416;DHT22;10367;52.202;5.996;2023-09-30T07:55:26;13.50;99.90
20416;DHT22;10367;52.202;5.996;2023-09-30T07:58:01;13.60;99.90
20416;DHT22;10367;52.202;5.996;2023-09-30T08:00:32;13.60;99.90
20416;DHT22;10367;52.202;5.996;2023-09-30T08:03:05;13.70;99.90
20416;DHT22;10367;52.202;5.996;2023-09-30T08:05:37;13.70;99.90
20416;DHT22;10367;52.202;5.996;2023-09-30T08:08:08;13.80;99.90
20416;DHT22;10367;52.202;5.996;2023-09-30T08:10:38;13.80;99.90
20416;DHT22;10367;52.202;5.996;2023-09-30T08:13:14;13.90;99.90
20416;DHT22;10367;52.202;5.996;2023-09-30T08:15:43;14.00;99.90
20416;DHT22;10367;52.202;5.996;2023-09-30T08:18:14;14.10;99.90
20416;DHT22;10367;52.202;5.996;2023-09-30T08:20:54;14.20;99.90
20416;DHT22;10367;52.202;5.996;2023-09-30T08:23:24;14.30;99.90
20416;DHT22;10367;52.202;5.996;2023-09-30T08:25:58;14.30;99.90
20416;DHT22;10367;52.202;5.996;2023-09-30T08:28:29;14.40;99.90
20416;DHT22;10367;52.202;5.996;2023-09-30T08:31:16;14.60;99.90
20416;DHT22;10367;52.202;5.996;2023-09-30T08:33:47;14.60;99.90
20416;DHT22;10367;52.202;5.996;2023-09-30T08:36:19;14.60;99.90
20416;DHT22;10367;52.202;5.996;2023-09-30T08:39:03;14.60;99.90
20416;DHT22;10367;52.202;5.996;2023-09-30T08:41:40;14.70;99.90
20416;DHT22;10367;52.202;5.996;2023-09-30T08:44:17;14.90;99.90
20416;DHT22;10367;52.202;5.996;2023-09-30T08:46:47;15.00;99.90
20416;DHT22;10367;52.202;5.996;2023-09-30T08:49:18;15.10;99.90
20416;DHT22;10367;52.202;5.996;2023-09-30T08:51:49;15.10;99.90
20416;DHT22;10367;52.202;5.996;2023-09-30T08:54:29;15.40;99.90
20416;DHT22;10367;52.202;5.996;2023-09-30T08:57:10;15.50;99.90
20416;DHT22;10367;52.202;5.996;2023-09-30T08:59:42;15.50;99.90
20416;DHT22;10367;52.202;5.996;2023-09-30T09:02:20;15.60;99.90
20416;DHT22;10367;52.202;5.996;2023-09-30T09:04:51;15.60;99.90
20416;DHT22;10367;52.202;5.996;2023-09-30T09:07:20;15.80;99.90
20416;DHT22;10367;52.202;5.996;2023-09-30T09:10:06;15.90;99.90
20416;DHT22;10367;52.202;5.996;2023-09-30T09:12:39;15.90;99.90
20416;DHT22;10367;52.202;5.996;2023-09-30T09:15:20;16.00;99.90
20416;DHT22;10367;52.202;5.996;2023-09-30T09:17:52;16.20;99.90
20416;DHT22;10367;52.202;5.996;2023-09-30T09:20:27;16.30;99.90
20416;DHT22;10367;52.202;5.996;2023-09-30T09:23:06;16.40;99.90
20416;DHT22;10367;52.202;5.996;2023-09-30T09:25:39;16.60;99.90
20416;DHT22;10367;52.202;5.996;2023-09-30T09:28:16;16.80;99.90
20416;DHT22;10367;52.202;5.996;2023-09-30T09:30:47;16.90;99.90
20416;DHT22;10367;52.202;5.996;2023-09-30T09:33:16;17.00;99.90
20416;DHT22;10367;52.202;5.996;2023-09-30T09:35:48;17.20;99.90
20416;DHT22;10367;52.202;5.996;2023-09-30T09:38:20;17.20;99.90
20416;DHT22;10367;52.202;5.996;2023-09-30T09:40:49;17.30;99.90
20416;DHT22;10367;52.202;5.996;2023-09-30T09:43:24;17.40;99.90
20416;DHT22;10367;52.202;5.996;2023-09-30T09:45:57;17.50;99.90
20416;DHT22;10367;52.202;5.996;2023-09-30T09:48:31;17.70;99.90
20416;DHT22;10367;52.202;5.996;2023-09-30T09:51:04;17.80;99.90
20416;DHT22;10367;52.202;5.996;2023-09-30T09:53:36;17.90;99.90
20416;DHT22;10367;52.202;5.996;2023-09-30T09:56:15;18.00;99.90
20416;DHT22;10367;52.202;5.996;2023-09-30T09:58:50;18.10;99.90
20416;DHT22;10367;52.202;5.996;2023-09-30T10:01:27;18.20;99.90
20416;DHT22;10367;52.202;5.996;2023-09-30T10:04:11;18.30;99.90
20416;DHT22;10367;52.202;5.996;2023-09-30T10:06:45;18.50;99.90
20416;DHT22;10367;52.202;5.996;2023-09-30T10:09:19;18.60;99.90
20416;DHT22;10367;52.202;5.996;2023-09-30T10:11:58;18.60;99.90
20416;DHT22;10367;52.202;5.996;2023-09-30T10:14:37;18.60;99.90
20416;DHT22;10367;52.202;5.996;2023-09-30T10:17:10;18.70;99.90
20416;DHT22;10367;52.202;5.996;2023-09-30T10:20:05;18.80;99.90
20416;DHT22;10367;52.202;5.996;2023-09-30T10:22:37;19.00;99.90
20416;DHT22;10367;52.202;5.996;2023-09-30T10:28:35;19.20;99.90
20416;DHT22;10367;52.202;5.996;2023-09-30T10:31:11;19.30;99.90
20416;DHT22;10367;52.202;5.996;2023-09-30T10:36:44;19.10;99.90
20416;DHT22;10367;52.202;5.996;2023-09-30T10:39:54;19.40;99.90
20416;DHT22;10367;52.202;5.996;2023-09-30T10:42:46;19.60;99.90
20416;DHT22;10367;52.202;5.996;2023-09-30T10:45:44;20.00;99.90
20416;DHT22;10367;52.202;5.996;2023-09-30T10:48:36;20.00;99.90
20416;DHT22;10367;52.202;5.996;2023-09-30T10:51:16;20.00;99.90
20416;DHT22;10367;52.202;5.996;2023-09-30T10:53:55;20.10;99.90
20416;DHT22;10367;52.202;5.996;2023-09-30T10:56:32;20.40;99.90
20416;DHT22;10367;52.202;5.996;2023-09-30T10:59:02;20.50;99.90
20416;DHT22;10367;52.202;5.996;2023-09-30T11:01:33;20.50;99.90
20416;DHT22;10367;52.202;5.996;2023-09-30T11:04:04;20.20;99.90
20416;DHT22;10367;52.202;5.996;2023-09-30T11:06:39;20.20;99.90
20416;DHT22;10367;52.202;5.996;2023-09-30T11:09:15;19.90;99.90
20416;DHT22;10367;52.202;5.996;2023-09-30T11:11:51;19.60;99.90
20416;DHT22;10367;52.202;5.996;2023-09-30T11:14:23;19.40;99.90
20416;DHT22;10367;52.202;5.996;2023-09-30T11:16:59;19.60;99.90
20416;DHT22;10367;52.202;5.996;2023-09-30T11:19:35;19.90;99.90
20416;DHT22;10367;52.202;5.996;2023-09-30T11:22:05;20.10;99.90
20416;DHT22;10367;52.202;5.996;2023-09-30T11:24:37;20.30;99.90
20416;DHT22;10367;52.202;5.996;2023-09-30T11:27:06;20.50;99.90
20416;DHT22;10367;52.202;5.996;2023-09-30T11:29:48;20.60;99.90
20416;DHT22;10367;52.202;5.996;2023-09-30T11:32:24;20.80;99.90
20416;DHT22;10367;52.202;5.996;2023-09-30T11:34:55;21.00;99.90
20416;DHT22;10367;52.202;5.996;2023-09-30T11:37:31;20.90;99.90
20416;DHT22;10367;52.202;5.996;2023-09-30T11:40:14;20.50;99.90
20416;DHT22;10367;52.202;5.996;2023-09-30T11:43:09;20.00;99.90
20416;DHT22;10367;52.202;5.996;2023-09-30T11:45:43;19.70;99.90
20416;DHT22;10367;52.202;5.996;2023-09-30T11:48:18;19.40;99.90
20416;DHT22;10367;52.202;5.996;2023-09-30T11:50:52;19.30;99.90
20416;DHT22;10367;52.202;5.996;2023-09-30T11:53:22;19.20;99.90
20416;DHT22;10367;52.202;5.996;2023-09-30T11:55:54;19.10;99.90
20416;DHT22;10367;52.202;5.996;2023-09-30T11:58:29;19.10;99.90
20416;DHT22;10367;52.202;5.996;2023-09-30T12:01:00;19.00;99.90
20416;DHT22;10367;52.202;5.996;2023-09-30T12:03:30;19.00;99.90
20416;DHT22;10367;52.202;5.996;2023-09-30T12:06:05;19.00;99.90
20416;DHT22;10367;52.202;5.996;2023-09-30T12:08:37;19.00;99.90
20416;DHT22;10367;52.202;5.996;2023-09-30T12:11:08;18.80;99.90
20416;DHT22;10367;52.202;5.996;2023-09-30T12:13:40;19.00;99.90
20416;DHT22;10367;52.202;5.996;2023-09-30T12:16:12;19.50;99.90
20416;DHT22;10367;52.202;5.996;2023-09-30T12:18:44;19.90;99.90
20416;DHT22;10367;52.202;5.996;2023-09-30T12:21:16;20.20;99.90
20416;DHT22;10367;52.202;5.996;2023-09-30T12:23:50;20.50;99.90
20416;DHT22;10367;52.202;5.996;2023-09-30T12:26:26;20.70;99.90
20416;DHT22;10367;52.202;5.996;2023-09-30T12:29:12;21.00;99.90
20416;DHT22;10367;52.202;5.996;2023-09-30T12:31:53;21.20;99.90
20416;DHT22;10367;52.202;5.996;2023-09-30T12:34:29;21.30;99.90
20416;DHT22;10367;52.202;5.996;2023-09-30T12:37:03;21.20;99.90
20416;DHT22;10367;52.202;5.996;2023-09-30T12:39:33;21.40;99.90
20416;DHT22;10367;52.202;5.996;2023-09-30T12:42:06;21.40;99.90
20416;DHT22;10367;52.202;5.996;2023-09-30T12:44:37;21.60;99.90
20416;DHT22;10367;52.202;5.996;2023-09-30T12:47:06;21.70;99.90
20416;DHT22;10367;52.202;5.996;2023-09-30T12:49:35;21.70;99.90
20416;DHT22;10367;52.202;5.996;2023-09-30T12:52:05;21.50;99.90
20416;DHT22;10367;52.202;5.996;2023-09-30T12:54:35;21.40;99.90
20416;DHT22;10367;52.202;5.996;2023-09-30T12:57:07;21.70;99.90
20416;DHT22;10367;52.202;5.996;2023-09-30T12:59:36;22.00;99.90
20416;DHT22;10367;52.202;5.996;2023-09-30T13:02:17;21.80;99.90
20416;DHT22;10367;52.202;5.996;2023-09-30T13:04:51;22.00;99.90
20416;DHT22;10367;52.202;5.996;2023-09-30T13:07:27;22.10;99.90
20416;DHT22;10367;52.202;5.996;2023-09-30T13:09:56;22.30;99.90
20416;DHT22;10367;52.202;5.996;2023-09-30T13:12:32;22.10;99.90
20416;DHT22;10367;52.202;5.996;2023-09-30T13:15:03;22.00;99.90
20416;DHT22;10367;52.202;5.996;2023-09-30T13:17:34;22.30;99.90
20416;DHT22;10367;52.202;5.996;2023-09-30T13:20:04;22.40;99.90
20416;DHT22;10367;52.202;5.996;2023-09-30T13:22:39;22.20;99.90
20416;DHT22;10367;52.202;5.996;2023-09-30T13:25:08;22.10;99.90
20416;DHT22;10367;52.202;5.996;2023-09-30T13:27:41;22.30;99.90
20416;DHT22;10367;52.202;5.996;2023-09-30T13:30:11;22.40;99.90
20416;DHT22;10367;52.202;5.996;2023-09-30T13:32:41;22.30;99.90
20416;DHT22;10367;52.202;5.996;2023-09-30T13:35:11;22.40;99.90
20416;DHT22;10367;52.202;5.996;2023-09-30T13:37:43;22.40;99.90
20416;DHT22;10367;52.202;5.996;2023-09-30T13:40:13;22.20;99.90
20416;DHT22;10367;52.202;5.996;2023-09-30T13:42:44;22.30;99.90
20416;DHT22;10367;52.202;5.996;2023-09-30T13:45:17;22.00;99.90
20416;DHT22;10367;52.202;5.996;2023-09-30T13:47:49;22.10;99.90
20416;DHT22;10367;52.202;5.996;2023-09-30T13:50:19;22.10;99.90
20416;DHT22;10367;52.202;5.996;2023-09-30T13:52:51;22.00;99.90
20416;DHT22;10367;52.202;5.996;2023-09-30T13:55:20;22.20;99.90
20416;DHT22;10367;52.202;5.996;2023-09-30T13:57:52;22.30;99.90
20416;DHT22;10367;52.202;5.996;2023-09-30T14:00:21;22.30;99.90
20416;DHT22;10367;52.202;5.996;2023-09-30T14:02:51;22.20;99.90
20416;DHT22;10367;52.202;5.996;2023-09-30T14:05:29;22.00;99.90
20416;DHT22;10367;52.202;5.996;2023-09-30T14:07:58;22.30;99.90
20416;DHT22;10367;52.202;5.996;2023-09-30T14:10:29;22.60;99.90
20416;DHT22;10367;52.202;5.996;2023-09-30T14:13:00;22.70;99.90
20416;DHT22;10367;52.202;5.996;2023-09-30T14:15:29;22.70;99.90
20416;DHT22;10367;52.202;5.996;2023-09-30T14:18:00;22.60;99.90
20416;DHT22;10367;52.202;5.996;2023-09-30T14:20:31;22.70;99.90
20416;DHT22;10367;52.202;5.996;2023-09-30T14:23:04;22.50;99.90
20416;DHT22;10367;52.202;5.996;2023-09-30T14:25:33;22.50;99.90
20416;DHT22;10367;52.202;5.996;2023-09-30T14:28:04;22.50;99.90
20416;DHT22;10367;52.202;5.996;2023-09-30T14:30:35;22.30;99.90
20416;DHT22;10367;52.202;5.996;2023-09-30T14:33:05;22.40;99.90
20416;DHT22;10367;52.202;5.996;2023-09-30T14:35:34;22.50;99.90
20416;DHT22;10367;52.202;5.996;2023-09-30T14:38:04;22.30;99.90
20416;DHT22;10367;52.202;5.996;2023-09-30T14:40:36;22.00;99.90
20416;DHT22;10367;52.202;5.996;2023-09-30T14:43:08;21.70;99.90
20416;DHT22;10367;52.202;5.996;2023-09-30T14:45:38;21.30;99.90
20416;DHT22;10367;52.202;5.996;2023-09-30T14:48:09;21.20;99.90
20416;DHT22;10367;52.202;5.996;2023-09-30T14:50:38;21.30;99.90
20416;DHT22;10367;52.202;5.996;2023-09-30T14:53:16;21.30;99.90
20416;DHT22;10367;52.202;5.996;2023-09-30T14:55:48;21.30;99.90
20416;DHT22;10367;52.202;5.996;2023-09-30T14:58:21;21.30;99.90
20416;DHT22;10367;52.202;5.996;2023-09-30T15:00:51;21.20;99.90
20416;DHT22;10367;52.202;5.996;2023-09-30T15:03:27;20.90;99.90
20416;DHT22;10367;52.202;5.996;2023-09-30T15:06:00;20.70;99.90
20416;DHT22;10367;52.202;5.996;2023-09-30T15:08:29;20.60;99.90
20416;DHT22;10367;52.202;5.996;2023-09-30T15:11:00;20.70;99.90
20416;DHT22;10367;52.202;5.996;2023-09-30T15:13:38;20.60;99.90
20416;DHT22;10367;52.202;5.996;2023-09-30T15:16:15;20.60;99.90
20416;DHT22;10367;52.202;5.996;2023-09-30T15:18:48;20.50;99.90
20416;DHT22;10367;52.202;5.996;2023-09-30T15:21:17;20.40;99.90
20416;DHT22;10367;52.202;5.996;2023-09-30T15:23:48;20.30;99.90
20416;DHT22;10367;52.202;5.996;2023-09-30T15:26:16;20.30;99.90
20416;DHT22;10367;52.202;5.996;2023-09-30T15:28:47;20.20;99.90
20416;DHT22;10367;52.202;5.996;2023-09-30T15:31:17;20.20;99.90
20416;DHT22;10367;52.202;5.996;2023-09-30T15:33:47;20.10;99.90
20416;DHT22;10367;52.202;5.996;2023-09-30T15:36:17;19.90;99.90
20416;DHT22;10367;52.202;5.996;2023-09-30T15:38:49;19.70;99.90
20416;DHT22;10367;52.202;5.996;2023-09-30T15:41:23;19.60;99.90
20416;DHT22;10367;52.202;5.996;2023-09-30T15:43:58;19.60;99.90
20416;DHT22;10367;52.202;5.996;2023-09-30T15:46:32;19.60;99.90
20416;DHT22;10367;52.202;5.996;2023-09-30T15:49:01;19.60;99.90
20416;DHT22;10367;52.202;5.996;2023-09-30T15:51:31;19.60;99.90
20416;DHT22;10367;52.202;5.996;2023-09-30T15:54:01;19.60;99.90
20416;DHT22;10367;52.202;5.996;2023-09-30T15:56:30;19.60;99.90
20416;DHT22;10367;52.202;5.996;2023-09-30T15:59:17;19.70;99.90
20416;DHT22;10367;52.202;5.996;2023-09-30T16:01:47;19.70;99.90
20416;DHT22;10367;52.202;5.996;2023-09-30T16:04:17;19.80;99.90
20416;DHT22;10367;52.202;5.996;2023-09-30T16:06:46;19.80;99.90
20416;DHT22;10367;52.202;5.996;2023-09-30T16:09:19;19.80;99.90
20416;DHT22;10367;52.202;5.996;2023-09-30T16:11:49;19.80;99.90
20416;DHT22;10367;52.202;5.996;2023-09-30T16:14:20;19.80;99.90
20416;DHT22;10367;52.202;5.996;2023-09-30T16:16:50;19.70;99.90
20416;DHT22;10367;52.202;5.996;2023-09-30T16:19:22;19.60;99.90
20416;DHT22;10367;52.202;5.996;2023-09-30T16:21:54;19.50;99.90
20416;DHT22;10367;52.202;5.996;2023-09-30T16:24:24;19.40;99.90
20416;DHT22;10367;52.202;5.996;2023-09-30T16:26:53;19.30;99.90
20416;DHT22;10367;52.202;5.996;2023-09-30T16:29:28;19.10;99.90
20416;DHT22;10367;52.202;5.996;2023-09-30T16:31:58;19.00;99.90
20416;DHT22;10367;52.202;5.996;2023-09-30T16:34:28;18.80;99.90
20416;DHT22;10367;52.202;5.996;2023-09-30T16:36:58;18.70;99.90
20416;DHT22;10367;52.202;5.996;2023-09-30T16:39:27;18.60;99.90
20416;DHT22;10367;52.202;5.996;2023-09-30T16:41:59;18.60;99.90
20416;DHT22;10367;52.202;5.996;2023-09-30T16:44:29;18.50;99.90